sensor_id;sensor_type;location;lat;lon;timestamp;P1;durP1;ratioP1;P2;durP2;ratioP2
34278;SDS011;20538;51.528;9.942;2023-06-22T00:00:00;27.92;;;19.08;;
34278;SDS011;20538;51.528;9.942;2023-06-22T00:02:26;27.55;;;16.25;;
34278;SDS011;20538;51.528;9.942;2023-06-22T00:04:51;24.38;;;16.52;;
34278;SDS011;20538;51.528;9.942;2023-06-22T00:07:17;24.92;;;16.35;;
34278;SDS011;20538;51.528;9.942;2023-06-22T00:09:43;24.55;;;16.88;;
34278;SDS011;20538;51.528;9.942;2023-06-22T00:12:08;19.83;;;16.40;;
34278;SDS011;20538;51.528;9.942;2023-06-22T00:14:34;25.63;;;15.80;;
34278;SDS011;20538;51.528;9.942;2023-06-22T00:16:59;23.50;;;16.45;;
34278;SDS011;20538;51.528;9.942;2023-06-22T00:19:25;20.52;;;14.82;;
34278;SDS011;20538;51.528;9.942;2023-06-22T00:21:51;19.13;;;15.02;;
34278;SDS011;20538;51.528;9.942;2023-06-22T00:24:19;21.90;;;15.95;;
34278;SDS011;20538;51.528;9.942;2023-06-22T00:26:46;21.10;;;15.15;;
34278;SDS011;20538;51.528;9.942;2023-06-22T00:29:12;21.02;;;15.38;;
34278;SDS011;20538;51.528;9.942;2023-06-22T00:31:38;21.48;;;15.15;;
34278;SDS011;20538;51.528;9.942;2023-06-22T00:34:03;18.17;;;14.25;;
34278;SDS011;20538;51.528;9.942;2023-06-22T00:36:31;22.30;;;15.10;;
34278;SDS011;20538;51.528;9.942;2023-06-22T00:38:57;19.33;;;14.95;;
34278;SDS011;20538;51.528;9.942;2023-06-22T00:41:23;21.02;;;14.82;;
34278;SDS011;20538;51.528;9.942;2023-06-22T00:43:48;17.13;;;14.15;;
34278;SDS011;20538;51.528;9.942;2023-06-22T00:46:14;17.70;;;14.43;;
34278;SDS011;20538;51.528;9.942;2023-06-22T00:48:40;17.88;;;13.90;;
34278;SDS011;20538;51.528;9.942;2023-06-22T00:51:08;17.15;;;14.05;;
34278;SDS011;20538;51.528;9.942;2023-06-22T00:53:35;17.80;;;15.00;;
34278;SDS011;20538;51.528;9.942;2023-06-22T00:56:02;19.40;;;15.15;;
34278;SDS011;20538;51.528;9.942;2023-06-22T00:58:28;22.17;;;15.90;;
34278;SDS011;20538;51.528;9.942;2023-06-22T01:00:54;19.17;;;14.48;;
34278;SDS011;20538;51.528;9.942;2023-06-22T01:03:20;19.92;;;14.95;;
34278;SDS011;20538;51.528;9.942;2023-06-22T01:05:46;22.30;;;15.65;;
34278;SDS011;20538;51.528;9.942;2023-06-22T01:11:07;24.25;;;16.40;;
34278;SDS011;20538;51.528;9.942;2023-06-22T01:13:41;24.67;;;16.42;;
34278;SDS011;20538;51.528;9.942;2023-06-22T01:16:20;23.20;;;15.98;;
34278;SDS011;20538;51.528;9.942;2023-06-22T01:18:50;25.73;;;16.60;;
34278;SDS011;20538;51.528;9.942;2023-06-22T01:21:20;26.77;;;16.88;;
34278;SDS011;20538;51.528;9.942;2023-06-22T01:29:25;24.23;;;16.48;;
34278;SDS011;20538;51.528;9.942;2023-06-22T01:31:52;20.00;;;15.68;;
34278;SDS011;20538;51.528;9.942;2023-06-22T01:34:20;24.63;;;15.05;;
34278;SDS011;20538;51.528;9.942;2023-06-22T01:36:47;24.33;;;17.05;;
34278;SDS011;20538;51.528;9.942;2023-06-22T01:39:13;25.58;;;15.50;;
34278;SDS011;20538;51.528;9.942;2023-06-22T01:41:39;22.30;;;15.82;;
34278;SDS011;20538;51.528;9.942;2023-06-22T01:44:07;16.70;;;13.43;;
34278;SDS011;20538;51.528;9.942;2023-06-22T01:46:34;21.08;;;14.25;;
34278;SDS011;20538;51.528;9.942;2023-06-22T01:49:04;16.17;;;13.48;;
34278;SDS011;20538;51.528;9.942;2023-06-22T01:51:30;23.08;;;15.73;;
34278;SDS011;20538;51.528;9.942;2023-06-22T01:53:56;33.53;;;20.55;;
34278;SDS011;20538;51.528;9.942;2023-06-22T01:56:21;37.95;;;26.83;;
34278;SDS011;20538;51.528;9.942;2023-06-22T02:01:43;44.70;;;30.30;;
34278;SDS011;20538;51.528;9.942;2023-06-22T02:04:20;42.25;;;27.88;;
34278;SDS011;20538;51.528;9.942;2023-06-22T02:06:51;34.53;;;23.27;;
34278;SDS011;20538;51.528;9.942;2023-06-22T02:09:21;27.77;;;20.33;;
34278;SDS011;20538;51.528;9.942;2023-06-22T02:11:51;30.52;;;21.00;;
34278;SDS011;20538;51.528;9.942;2023-06-22T02:14:20;27.50;;;19.27;;
34278;SDS011;20538;51.528;9.942;2023-06-22T02:16:47;27.88;;;18.30;;
34278;SDS011;20538;51.528;9.942;2023-06-22T02:19:14;26.33;;;18.88;;
34278;SDS011;20538;51.528;9.942;2023-06-22T02:21:40;29.73;;;18.85;;
34278;SDS011;20538;51.528;9.942;2023-06-22T02:24:06;28.92;;;17.40;;
34278;SDS011;20538;51.528;9.942;2023-06-22T02:26:32;23.95;;;17.58;;
34278;SDS011;20538;51.528;9.942;2023-06-22T02:28:59;22.85;;;16.58;;
34278;SDS011;20538;51.528;9.942;2023-06-22T02:31:25;27.15;;;16.20;;
34278;SDS011;20538;51.528;9.942;2023-06-22T02:33:55;22.45;;;15.80;;
34278;SDS011;20538;51.528;9.942;2023-06-22T02:36:24;19.83;;;15.43;;
34278;SDS011;20538;51.528;9.942;2023-06-22T02:38:52;21.63;;;16.75;;
34278;SDS011;20538;51.528;9.942;2023-06-22T02:41:19;25.27;;;15.85;;
34278;SDS011;20538;51.528;9.942;2023-06-22T02:43:45;28.77;;;17.17;;
34278;SDS011;20538;51.528;9.942;2023-06-22T02:46:11;26.80;;;16.35;;
34278;SDS011;20538;51.528;9.942;2023-06-22T02:48:38;32.65;;;17.58;;
34278;SDS011;20538;51.528;9.942;2023-06-22T02:51:07;30.05;;;17.25;;
34278;SDS011;20538;51.528;9.942;2023-06-22T02:53:33;32.30;;;18.00;;
34278;SDS011;20538;51.528;9.942;2023-06-22T02:55:59;33.92;;;17.48;;
34278;SDS011;20538;51.528;9.942;2023-06-22T02:58:26;27.90;;;16.63;;
34278;SDS011;20538;51.528;9.942;2023-06-22T03:00:52;26.60;;;16.98;;
34278;SDS011;20538;51.528;9.942;2023-06-22T03:03:18;28.38;;;17.25;;
34278;SDS011;20538;51.528;9.942;2023-06-22T03:05:44;29.63;;;18.10;;
34278;SDS011;20538;51.528;9.942;2023-06-22T03:08:10;33.08;;;17.90;;
34278;SDS011;20538;51.528;9.942;2023-06-22T03:10:35;22.90;;;16.70;;
34278;SDS011;20538;51.528;9.942;2023-06-22T03:13:01;25.60;;;17.55;;
34278;SDS011;20538;51.528;9.942;2023-06-22T03:15:26;22.75;;;16.77;;
34278;SDS011;20538;51.528;9.942;2023-06-22T03:17:54;25.73;;;17.65;;
34278;SDS011;20538;51.528;9.942;2023-06-22T03:20:20;28.20;;;17.98;;
34278;SDS011;20538;51.528;9.942;2023-06-22T03:22:45;29.58;;;17.52;;
34278;SDS011;20538;51.528;9.942;2023-06-22T03:25:13;26.88;;;17.67;;
34278;SDS011;20538;51.528;9.942;2023-06-22T03:27:39;23.70;;;17.67;;
34278;SDS011;20538;51.528;9.942;2023-06-22T03:30:07;31.25;;;17.25;;
34278;SDS011;20538;51.528;9.942;2023-06-22T03:32:33;27.65;;;16.60;;
34278;SDS011;20538;51.528;9.942;2023-06-22T03:34:59;26.08;;;16.55;;
34278;SDS011;20538;51.528;9.942;2023-06-22T03:37:25;26.60;;;16.45;;
34278;SDS011;20538;51.528;9.942;2023-06-22T03:39:51;27.17;;;18.30;;
34278;SDS011;20538;51.528;9.942;2023-06-22T03:42:17;29.67;;;19.35;;
34278;SDS011;20538;51.528;9.942;2023-06-22T03:44:42;30.67;;;18.05;;
34278;SDS011;20538;51.528;9.942;2023-06-22T03:47:08;29.08;;;18.88;;
34278;SDS011;20538;51.528;9.942;2023-06-22T03:49:34;32.72;;;17.98;;
34278;SDS011;20538;51.528;9.942;2023-06-22T03:52:01;30.73;;;19.15;;
34278;SDS011;20538;51.528;9.942;2023-06-22T03:54:28;27.50;;;17.90;;
34278;SDS011;20538;51.528;9.942;2023-06-22T03:56:54;25.38;;;17.50;;
34278;SDS011;20538;51.528;9.942;2023-06-22T03:59:22;25.08;;;17.67;;
34278;SDS011;20538;51.528;9.942;2023-06-22T04:01:47;25.48;;;16.65;;
34278;SDS011;20538;51.528;9.942;2023-06-22T04:04:13;25.80;;;17.33;;
34278;SDS011;20538;51.528;9.942;2023-06-22T04:06:39;26.08;;;18.58;;
34278;SDS011;20538;51.528;9.942;2023-06-22T04:09:05;29.60;;;18.73;;
34278;SDS011;20538;51.528;9.942;2023-06-22T04:11:31;23.33;;;16.70;;
34278;SDS011;20538;51.528;9.942;2023-06-22T04:13:57;24.48;;;17.38;;
34278;SDS011;20538;51.528;9.942;2023-06-22T04:16:22;26.30;;;18.75;;
34278;SDS011;20538;51.528;9.942;2023-06-22T04:18:48;28.42;;;17.95;;
34278;SDS011;20538;51.528;9.942;2023-06-22T04:21:14;26.73;;;17.77;;
34278;SDS011;20538;51.528;9.942;2023-06-22T04:23:39;26.75;;;18.17;;
34278;SDS011;20538;51.528;9.942;2023-06-22T04:26:05;29.17;;;17.80;;
34278;SDS011;20538;51.528;9.942;2023-06-22T04:28:30;27.02;;;18.27;;
34278;SDS011;20538;51.528;9.942;2023-06-22T04:31:00;28.38;;;18.70;;
34278;SDS011;20538;51.528;9.942;2023-06-22T04:33:28;28.75;;;18.95;;
34278;SDS011;20538;51.528;9.942;2023-06-22T04:35:54;28.42;;;19.23;;
34278;SDS011;20538;51.528;9.942;2023-06-22T04:38:22;23.85;;;17.95;;
34278;SDS011;20538;51.528;9.942;2023-06-22T04:40:48;26.42;;;18.85;;
34278;SDS011;20538;51.528;9.942;2023-06-22T04:43:14;25.80;;;18.40;;
34278;SDS011;20538;51.528;9.942;2023-06-22T04:45:39;24.98;;;17.95;;
34278;SDS011;20538;51.528;9.942;2023-06-22T04:48:05;27.17;;;18.45;;
34278;SDS011;20538;51.528;9.942;2023-06-22T04:50:31;27.40;;;18.10;;
34278;SDS011;20538;51.528;9.942;2023-06-22T04:52:56;28.10;;;18.48;;
34278;SDS011;20538;51.528;9.942;2023-06-22T04:55:23;35.13;;;20.08;;
34278;SDS011;20538;51.528;9.942;2023-06-22T04:57:50;27.13;;;17.55;;
34278;SDS011;20538;51.528;9.942;2023-06-22T05:00:16;27.15;;;19.02;;
34278;SDS011;20538;51.528;9.942;2023-06-22T05:02:44;31.38;;;19.38;;
34278;SDS011;20538;51.528;9.942;2023-06-22T05:05:11;27.98;;;18.73;;
34278;SDS011;20538;51.528;9.942;2023-06-22T05:07:44;36.15;;;18.30;;
34278;SDS011;20538;51.528;9.942;2023-06-22T05:10:17;27.38;;;19.52;;
34278;SDS011;20538;51.528;9.942;2023-06-22T05:12:44;25.15;;;19.13;;
34278;SDS011;20538;51.528;9.942;2023-06-22T05:15:11;28.88;;;18.33;;
34278;SDS011;20538;51.528;9.942;2023-06-22T05:17:37;31.83;;;18.42;;
34278;SDS011;20538;51.528;9.942;2023-06-22T05:20:08;29.65;;;18.88;;
34278;SDS011;20538;51.528;9.942;2023-06-22T05:22:35;36.92;;;21.40;;
34278;SDS011;20538;51.528;9.942;2023-06-22T05:25:00;29.85;;;19.05;;
34278;SDS011;20538;51.528;9.942;2023-06-22T05:27:26;28.92;;;20.60;;
34278;SDS011;20538;51.528;9.942;2023-06-22T05:29:52;32.38;;;20.95;;
34278;SDS011;20538;51.528;9.942;2023-06-22T05:32:17;37.65;;;21.30;;
34278;SDS011;20538;51.528;9.942;2023-06-22T05:34:43;32.67;;;20.63;;
34278;SDS011;20538;51.528;9.942;2023-06-22T05:37:09;36.22;;;23.20;;
34278;SDS011;20538;51.528;9.942;2023-06-22T05:39:35;32.50;;;21.95;;
34278;SDS011;20538;51.528;9.942;2023-06-22T05:42:03;33.33;;;22.92;;
34278;SDS011;20538;51.528;9.942;2023-06-22T05:44:32;33.92;;;23.05;;
34278;SDS011;20538;51.528;9.942;2023-06-22T05:46:58;38.33;;;23.10;;
34278;SDS011;20538;51.528;9.942;2023-06-22T05:49:24;38.50;;;25.85;;
34278;SDS011;20538;51.528;9.942;2023-06-22T05:51:54;40.03;;;24.25;;
34278;SDS011;20538;51.528;9.942;2023-06-22T05:54:21;34.28;;;26.10;;
34278;SDS011;20538;51.528;9.942;2023-06-22T05:56:47;38.92;;;26.70;;
34278;SDS011;20538;51.528;9.942;2023-06-22T05:59:12;40.78;;;25.17;;
34278;SDS011;20538;51.528;9.942;2023-06-22T06:01:38;37.50;;;24.00;;
34278;SDS011;20538;51.528;9.942;2023-06-22T06:04:05;31.95;;;23.17;;
34278;SDS011;20538;51.528;9.942;2023-06-22T06:06:33;30.27;;;22.33;;
34278;SDS011;20538;51.528;9.942;2023-06-22T06:08:59;31.63;;;22.27;;
34278;SDS011;20538;51.528;9.942;2023-06-22T06:11:27;30.73;;;20.63;;
34278;SDS011;20538;51.528;9.942;2023-06-22T06:13:53;33.92;;;21.13;;
34278;SDS011;20538;51.528;9.942;2023-06-22T06:16:19;30.88;;;21.90;;
34278;SDS011;20538;51.528;9.942;2023-06-22T06:18:45;30.60;;;21.25;;
34278;SDS011;20538;51.528;9.942;2023-06-22T06:21:11;29.60;;;18.92;;
34278;SDS011;20538;51.528;9.942;2023-06-22T06:23:37;31.75;;;19.83;;
34278;SDS011;20538;51.528;9.942;2023-06-22T06:26:03;32.00;;;20.38;;
34278;SDS011;20538;51.528;9.942;2023-06-22T06:28:31;34.30;;;19.95;;
34278;SDS011;20538;51.528;9.942;2023-06-22T06:30:57;29.77;;;18.95;;
34278;SDS011;20538;51.528;9.942;2023-06-22T06:33:23;31.23;;;19.75;;
34278;SDS011;20538;51.528;9.942;2023-06-22T06:35:49;28.55;;;19.33;;
34278;SDS011;20538;51.528;9.942;2023-06-22T06:38:15;34.22;;;19.15;;
34278;SDS011;20538;51.528;9.942;2023-06-22T06:40:40;35.15;;;20.52;;
34278;SDS011;20538;51.528;9.942;2023-06-22T06:43:06;33.35;;;18.95;;
34278;SDS011;20538;51.528;9.942;2023-06-22T06:45:31;31.23;;;18.42;;
34278;SDS011;20538;51.528;9.942;2023-06-22T06:47:59;34.08;;;19.73;;
34278;SDS011;20538;51.528;9.942;2023-06-22T06:50:25;28.35;;;18.42;;
34278;SDS011;20538;51.528;9.942;2023-06-22T06:52:51;27.92;;;17.65;;
34278;SDS011;20538;51.528;9.942;2023-06-22T06:55:16;25.63;;;17.50;;
34278;SDS011;20538;51.528;9.942;2023-06-22T06:57:42;22.75;;;15.93;;
34278;SDS011;20538;51.528;9.942;2023-06-22T07:00:09;28.08;;;16.38;;
34278;SDS011;20538;51.528;9.942;2023-06-22T07:02:39;26.30;;;16.98;;
34278;SDS011;20538;51.528;9.942;2023-06-22T07:05:06;28.00;;;15.88;;
34278;SDS011;20538;51.528;9.942;2023-06-22T07:07:31;26.50;;;15.43;;
34278;SDS011;20538;51.528;9.942;2023-06-22T07:09:57;23.77;;;15.45;;
34278;SDS011;20538;51.528;9.942;2023-06-22T07:12:23;23.80;;;15.93;;
34278;SDS011;20538;51.528;9.942;2023-06-22T07:14:49;21.23;;;14.38;;
34278;SDS011;20538;51.528;9.942;2023-06-22T07:17:16;23.58;;;14.75;;
34278;SDS011;20538;51.528;9.942;2023-06-22T07:19:41;23.98;;;14.48;;
34278;SDS011;20538;51.528;9.942;2023-06-22T07:22:07;20.77;;;13.93;;
34278;SDS011;20538;51.528;9.942;2023-06-22T07:24:33;23.63;;;14.57;;
34278;SDS011;20538;51.528;9.942;2023-06-22T07:26:59;18.58;;;13.60;;
34278;SDS011;20538;51.528;9.942;2023-06-22T07:29:25;27.65;;;14.25;;
34278;SDS011;20538;51.528;9.942;2023-06-22T07:31:52;22.83;;;14.23;;
34278;SDS011;20538;51.528;9.942;2023-06-22T07:34:18;18.10;;;13.55;;
34278;SDS011;20538;51.528;9.942;2023-06-22T07:36:44;19.27;;;13.00;;
34278;SDS011;20538;51.528;9.942;2023-06-22T07:39:09;22.42;;;13.73;;
34278;SDS011;20538;51.528;9.942;2023-06-22T07:41:36;21.73;;;12.85;;
34278;SDS011;20538;51.528;9.942;2023-06-22T07:44:03;21.33;;;13.75;;
34278;SDS011;20538;51.528;9.942;2023-06-22T07:46:29;20.95;;;14.20;;
34278;SDS011;20538;51.528;9.942;2023-06-22T07:48:55;18.55;;;13.65;;
34278;SDS011;20538;51.528;9.942;2023-06-22T07:51:21;25.92;;;13.90;;
34278;SDS011;20538;51.528;9.942;2023-06-22T07:53:47;17.27;;;13.05;;
34278;SDS011;20538;51.528;9.942;2023-06-22T07:56:13;21.75;;;11.85;;
34278;SDS011;20538;51.528;9.942;2023-06-22T07:58:43;20.00;;;12.52;;
34278;SDS011;20538;51.528;9.942;2023-06-22T08:01:10;15.77;;;11.88;;
34278;SDS011;20538;51.528;9.942;2023-06-22T08:03:36;16.70;;;10.75;;
34278;SDS011;20538;51.528;9.942;2023-06-22T08:06:02;18.88;;;11.27;;
34278;SDS011;20538;51.528;9.942;2023-06-22T08:08:28;14.85;;;10.55;;
34278;SDS011;20538;51.528;9.942;2023-06-22T08:10:54;15.07;;;10.63;;
34278;SDS011;20538;51.528;9.942;2023-06-22T08:13:20;13.50;;;10.35;;
34278;SDS011;20538;51.528;9.942;2023-06-22T08:15:47;13.82;;;10.07;;
34278;SDS011;20538;51.528;9.942;2023-06-22T08:18:15;13.95;;;10.43;;
34278;SDS011;20538;51.528;9.942;2023-06-22T08:20:41;15.98;;;10.80;;
34278;SDS011;20538;51.528;9.942;2023-06-22T08:23:08;14.55;;;10.23;;
34278;SDS011;20538;51.528;9.942;2023-06-22T08:25:34;15.38;;;10.95;;
34278;SDS011;20538;51.528;9.942;2023-06-22T08:28:03;12.70;;;10.10;;
34278;SDS011;20538;51.528;9.942;2023-06-22T08:30:30;10.70;;;9.48;;
34278;SDS011;20538;51.528;9.942;2023-06-22T08:32:56;16.67;;;9.90;;
34278;SDS011;20538;51.528;9.942;2023-06-22T08:35:22;14.48;;;11.07;;
34278;SDS011;20538;51.528;9.942;2023-06-22T08:37:48;13.43;;;10.63;;
34278;SDS011;20538;51.528;9.942;2023-06-22T08:40:19;12.20;;;9.68;;
34278;SDS011;20538;51.528;9.942;2023-06-22T08:42:46;12.65;;;9.73;;
34278;SDS011;20538;51.528;9.942;2023-06-22T08:45:15;13.90;;;9.90;;
34278;SDS011;20538;51.528;9.942;2023-06-22T08:47:41;11.38;;;8.85;;
34278;SDS011;20538;51.528;9.942;2023-06-22T08:50:10;12.70;;;9.32;;
34278;SDS011;20538;51.528;9.942;2023-06-22T08:52:36;9.93;;;8.82;;
34278;SDS011;20538;51.528;9.942;2023-06-22T08:55:03;12.00;;;9.15;;
34278;SDS011;20538;51.528;9.942;2023-06-22T08:57:29;13.70;;;9.63;;
34278;SDS011;20538;51.528;9.942;2023-06-22T08:59:55;11.30;;;8.70;;
34278;SDS011;20538;51.528;9.942;2023-06-22T09:02:23;11.32;;;9.45;;
34278;SDS011;20538;51.528;9.942;2023-06-22T09:04:59;10.63;;;8.95;;
34278;SDS011;20538;51.528;9.942;2023-06-22T09:07:28;16.88;;;9.85;;
34278;SDS011;20538;51.528;9.942;2023-06-22T09:09:53;12.93;;;9.27;;
34278;SDS011;20538;51.528;9.942;2023-06-22T09:12:20;11.82;;;9.18;;
34278;SDS011;20538;51.528;9.942;2023-06-22T09:14:50;13.27;;;9.15;;
34278;SDS011;20538;51.528;9.942;2023-06-22T09:17:16;11.70;;;8.98;;
34278;SDS011;20538;51.528;9.942;2023-06-22T09:19:42;12.73;;;9.23;;
34278;SDS011;20538;51.528;9.942;2023-06-22T09:22:08;15.27;;;9.27;;
34278;SDS011;20538;51.528;9.942;2023-06-22T09:24:34;14.55;;;9.80;;
34278;SDS011;20538;51.528;9.942;2023-06-22T09:26:59;15.25;;;10.55;;
34278;SDS011;20538;51.528;9.942;2023-06-22T09:29:25;12.63;;;8.98;;
34278;SDS011;20538;51.528;9.942;2023-06-22T09:31:51;12.32;;;8.85;;
34278;SDS011;20538;51.528;9.942;2023-06-22T09:34:19;16.27;;;9.70;;
34278;SDS011;20538;51.528;9.942;2023-06-22T09:36:48;14.18;;;10.05;;
34278;SDS011;20538;51.528;9.942;2023-06-22T09:39:14;10.55;;;9.07;;
34278;SDS011;20538;51.528;9.942;2023-06-22T09:41:39;11.55;;;9.38;;
34278;SDS011;20538;51.528;9.942;2023-06-22T09:44:05;12.48;;;10.27;;
34278;SDS011;20538;51.528;9.942;2023-06-22T09:46:31;13.10;;;9.88;;
34278;SDS011;20538;51.528;9.942;2023-06-22T09:48:56;10.32;;;8.95;;
34278;SDS011;20538;51.528;9.942;2023-06-22T09:51:22;12.57;;;8.35;;
34278;SDS011;20538;51.528;9.942;2023-06-22T09:53:49;12.98;;;8.88;;
34278;SDS011;20538;51.528;9.942;2023-06-22T09:56:15;10.23;;;7.97;;
34278;SDS011;20538;51.528;9.942;2023-06-22T09:58:44;13.57;;;9.10;;
34278;SDS011;20538;51.528;9.942;2023-06-22T10:01:11;10.70;;;8.60;;
34278;SDS011;20538;51.528;9.942;2023-06-22T10:03:37;12.63;;;8.80;;
34278;SDS011;20538;51.528;9.942;2023-06-22T10:06:03;10.25;;;8.30;;
34278;SDS011;20538;51.528;9.942;2023-06-22T10:08:29;13.38;;;8.57;;
34278;SDS011;20538;51.528;9.942;2023-06-22T10:10:54;10.90;;;8.82;;
34278;SDS011;20538;51.528;9.942;2023-06-22T10:13:20;10.55;;;8.88;;
34278;SDS011;20538;51.528;9.942;2023-06-22T10:15:45;12.05;;;8.57;;
34278;SDS011;20538;51.528;9.942;2023-06-22T10:18:17;12.32;;;8.68;;
34278;SDS011;20538;51.528;9.942;2023-06-22T10:20:43;12.32;;;7.97;;
34278;SDS011;20538;51.528;9.942;2023-06-22T10:23:13;9.43;;;8.35;;
34278;SDS011;20538;51.528;9.942;2023-06-22T10:25:39;9.07;;;8.07;;
34278;SDS011;20538;51.528;9.942;2023-06-22T10:28:05;11.35;;;8.32;;
34278;SDS011;20538;51.528;9.942;2023-06-22T10:30:31;11.55;;;7.40;;
34278;SDS011;20538;51.528;9.942;2023-06-22T10:33:00;10.30;;;8.07;;
34278;SDS011;20538;51.528;9.942;2023-06-22T10:35:26;9.80;;;7.38;;
34278;SDS011;20538;51.528;9.942;2023-06-22T10:37:52;11.55;;;7.72;;
34278;SDS011;20538;51.528;9.942;2023-06-22T10:40:17;11.77;;;7.97;;
34278;SDS011;20538;51.528;9.942;2023-06-22T10:42:46;12.40;;;8.07;;
34278;SDS011;20538;51.528;9.942;2023-06-22T10:45:11;8.30;;;7.35;;
34278;SDS011;20538;51.528;9.942;2023-06-22T10:47:38;10.88;;;7.60;;
34278;SDS011;20538;51.528;9.942;2023-06-22T10:50:04;9.80;;;7.38;;
34278;SDS011;20538;51.528;9.942;2023-06-22T10:52:30;10.07;;;7.50;;
34278;SDS011;20538;51.528;9.942;2023-06-22T10:54:56;9.52;;;7.78;;
34278;SDS011;20538;51.528;9.942;2023-06-22T10:57:22;9.60;;;7.05;;
34278;SDS011;20538;51.528;9.942;2023-06-22T10:59:48;9.65;;;6.65;;
34278;SDS011;20538;51.528;9.942;2023-06-22T11:02:14;13.07;;;7.82;;
34278;SDS011;20538;51.528;9.942;2023-06-22T11:04:42;11.68;;;7.15;;
34278;SDS011;20538;51.528;9.942;2023-06-22T11:07:12;8.73;;;7.10;;
34278;SDS011;20538;51.528;9.942;2023-06-22T11:09:38;9.07;;;7.40;;
34278;SDS011;20538;51.528;9.942;2023-06-22T11:12:04;11.38;;;7.63;;
34278;SDS011;20538;51.528;9.942;2023-06-22T11:14:31;9.95;;;7.07;;
34278;SDS011;20538;51.528;9.942;2023-06-22T11:16:58;10.00;;;7.03;;
34278;SDS011;20538;51.528;9.942;2023-06-22T11:19:24;7.90;;;6.80;;
34278;SDS011;20538;51.528;9.942;2023-06-22T11:21:50;10.60;;;7.50;;
34278;SDS011;20538;51.528;9.942;2023-06-22T11:24:16;9.55;;;7.18;;
34278;SDS011;20538;51.528;9.942;2023-06-22T11:26:42;10.25;;;7.88;;
34278;SDS011;20538;51.528;9.942;2023-06-22T11:29:08;10.75;;;7.32;;
34278;SDS011;20538;51.528;9.942;2023-06-22T11:31:34;12.20;;;8.40;;
34278;SDS011;20538;51.528;9.942;2023-06-22T11:34:00;9.48;;;8.48;;
34278;SDS011;20538;51.528;9.942;2023-06-22T11:36:27;10.73;;;8.93;;
34278;SDS011;20538;51.528;9.942;2023-06-22T11:38:54;11.02;;;8.50;;
34278;SDS011;20538;51.528;9.942;2023-06-22T11:41:20;12.02;;;7.68;;
34278;SDS011;20538;51.528;9.942;2023-06-22T11:43:45;11.70;;;8.07;;
34278;SDS011;20538;51.528;9.942;2023-06-22T11:46:11;9.73;;;8.60;;
34278;SDS011;20538;51.528;9.942;2023-06-22T11:48:37;9.85;;;8.02;;
34278;SDS011;20538;51.528;9.942;2023-06-22T11:51:03;10.52;;;7.63;;
34278;SDS011;20538;51.528;9.942;2023-06-22T11:53:28;10.55;;;8.10;;
34278;SDS011;20538;51.528;9.942;2023-06-22T11:55:54;8.98;;;8.07;;
34278;SDS011;20538;51.528;9.942;2023-06-22T11:58:21;15.73;;;8.98;;
34278;SDS011;20538;51.528;9.942;2023-06-22T12:00:47;9.07;;;7.50;;
34278;SDS011;20538;51.528;9.942;2023-06-22T12:03:13;9.07;;;7.25;;
34278;SDS011;20538;51.528;9.942;2023-06-22T12:05:39;12.77;;;7.35;;
34278;SDS011;20538;51.528;9.942;2023-06-22T12:08:05;8.98;;;6.40;;
34278;SDS011;20538;51.528;9.942;2023-06-22T12:10:31;10.30;;;6.70;;
34278;SDS011;20538;51.528;9.942;2023-06-22T12:12:57;7.88;;;6.68;;
34278;SDS011;20538;51.528;9.942;2023-06-22T12:15:24;8.45;;;7.28;;
34278;SDS011;20538;51.528;9.942;2023-06-22T12:17:50;8.90;;;6.70;;
34278;SDS011;20538;51.528;9.942;2023-06-22T12:20:16;9.98;;;6.63;;
34278;SDS011;20538;51.528;9.942;2023-06-22T12:22:42;11.35;;;6.75;;
34278;SDS011;20538;51.528;9.942;2023-06-22T12:25:08;9.00;;;6.75;;
34278;SDS011;20538;51.528;9.942;2023-06-22T12:27:34;8.57;;;6.43;;
34278;SDS011;20538;51.528;9.942;2023-06-22T12:30:01;8.40;;;6.68;;
34278;SDS011;20538;51.528;9.942;2023-06-22T12:32:28;8.98;;;6.00;;
34278;SDS011;20538;51.528;9.942;2023-06-22T12:34:54;11.55;;;6.57;;
34278;SDS011;20538;51.528;9.942;2023-06-22T12:37:21;12.02;;;7.30;;
34278;SDS011;20538;51.528;9.942;2023-06-22T12:39:50;10.85;;;6.43;;
34278;SDS011;20538;51.528;9.942;2023-06-22T12:42:20;7.32;;;6.50;;
34278;SDS011;20538;51.528;9.942;2023-06-22T12:44:46;6.88;;;6.15;;
34278;SDS011;20538;51.528;9.942;2023-06-22T12:47:12;8.57;;;6.55;;
34278;SDS011;20538;51.528;9.942;2023-06-22T12:49:38;12.13;;;6.93;;
34278;SDS011;20538;51.528;9.942;2023-06-22T12:52:08;11.00;;;6.68;;
34278;SDS011;20538;51.528;9.942;2023-06-22T12:54:35;8.90;;;7.07;;
34278;SDS011;20538;51.528;9.942;2023-06-22T12:57:04;9.82;;;6.47;;
34278;SDS011;20538;51.528;9.942;2023-06-22T12:59:29;9.68;;;6.88;;
34278;SDS011;20538;51.528;9.942;2023-06-22T13:01:55;12.18;;;7.10;;
34278;SDS011;20538;51.528;9.942;2023-06-22T13:04:21;11.20;;;7.13;;
34278;SDS011;20538;51.528;9.942;2023-06-22T13:06:47;8.98;;;6.85;;
34278;SDS011;20538;51.528;9.942;2023-06-22T13:09:15;9.50;;;6.25;;
34278;SDS011;20538;51.528;9.942;2023-06-22T13:11:42;10.13;;;7.72;;
34278;SDS011;20538;51.528;9.942;2023-06-22T13:14:08;8.02;;;6.75;;
34278;SDS011;20538;51.528;9.942;2023-06-22T13:16:34;11.15;;;8.13;;
34278;SDS011;20538;51.528;9.942;2023-06-22T13:18:59;10.15;;;7.93;;
34278;SDS011;20538;51.528;9.942;2023-06-22T13:21:25;9.15;;;7.30;;
34278;SDS011;20538;51.528;9.942;2023-06-22T13:23:51;9.93;;;8.23;;
34278;SDS011;20538;51.528;9.942;2023-06-22T13:26:17;9.05;;;7.47;;
34278;SDS011;20538;51.528;9.942;2023-06-22T13:28:43;10.82;;;8.07;;
34278;SDS011;20538;51.528;9.942;2023-06-22T13:31:08;9.50;;;7.75;;
34278;SDS011;20538;51.528;9.942;2023-06-22T13:33:34;11.77;;;7.78;;
34278;SDS011;20538;51.528;9.942;2023-06-22T13:36:00;12.85;;;8.10;;
34278;SDS011;20538;51.528;9.942;2023-06-22T13:38:28;14.60;;;8.60;;
34278;SDS011;20538;51.528;9.942;2023-06-22T13:40:56;10.90;;;8.38;;
34278;SDS011;20538;51.528;9.942;2023-06-22T13:43:23;10.80;;;8.93;;
34278;SDS011;20538;51.528;9.942;2023-06-22T13:45:49;13.93;;;8.50;;
34278;SDS011;20538;51.528;9.942;2023-06-22T13:48:15;12.10;;;8.25;;
34278;SDS011;20538;51.528;9.942;2023-06-22T13:50:41;12.50;;;8.75;;
34278;SDS011;20538;51.528;9.942;2023-06-22T13:53:06;10.73;;;8.27;;
34278;SDS011;20538;51.528;9.942;2023-06-22T13:55:32;13.48;;;8.45;;
34278;SDS011;20538;51.528;9.942;2023-06-22T13:57:57;13.07;;;9.75;;
34278;SDS011;20538;51.528;9.942;2023-06-22T14:00:23;12.52;;;8.85;;
34278;SDS011;20538;51.528;9.942;2023-06-22T14:02:48;11.43;;;8.18;;
34278;SDS011;20538;51.528;9.942;2023-06-22T14:05:14;13.23;;;9.40;;
34278;SDS011;20538;51.528;9.942;2023-06-22T14:07:40;16.52;;;9.23;;
34278;SDS011;20538;51.528;9.942;2023-06-22T14:10:05;12.07;;;8.82;;
34278;SDS011;20538;51.528;9.942;2023-06-22T14:12:31;12.10;;;9.40;;
34278;SDS011;20538;51.528;9.942;2023-06-22T14:14:57;12.52;;;9.43;;
34278;SDS011;20538;51.528;9.942;2023-06-22T14:17:23;12.07;;;9.25;;
34278;SDS011;20538;51.528;9.942;2023-06-22T14:19:51;15.50;;;9.77;;
34278;SDS011;20538;51.528;9.942;2023-06-22T14:22:20;15.48;;;9.65;;
34278;SDS011;20538;51.528;9.942;2023-06-22T14:24:47;11.25;;;9.20;;
34278;SDS011;20538;51.528;9.942;2023-06-22T14:27:14;11.07;;;9.88;;
34278;SDS011;20538;51.528;9.942;2023-06-22T14:29:40;14.05;;;8.75;;
34278;SDS011;20538;51.528;9.942;2023-06-22T14:32:07;13.57;;;9.70;;
34278;SDS011;20538;51.528;9.942;2023-06-22T14:34:33;12.73;;;9.52;;